Buoy 32685

sailwx.info

Track history (hours):
 
Tides and Currents Weather Stations Pressure Air Temp Water Temp Dewpoint Dewpoint Depression Visibility Wind Speed Wind Dir Waves Ship Positions

Drifting buoy 32685

Last reported at 2013-Nov-12 18:00 UTC. Time now 2014-Jul-28 12:22 UTC.
Position S 09°36' W 123°25'.
Warning: this ship's position is months out of date.

Water temperature 26.1 ° C

Date/timePositionNaut miles runAvg speedWind from/ knotsBaromVisibWave heightAir tempDewpointWater temp
2013-Nov-12 18:00S 09°36' W 123°25'1 0.7 26.1
2013-Nov-12 16:00S 09°35' W 123°24'2 0.5 25.9
2013-Nov-12 13:00S 09°36' W 123°23'2 0.6 25.9
2013-Nov-12 10:00S 09°35' W 123°24'1 0.8 26.1
2013-Nov-12 09:00S 09°35' W 123°23'0 0.0 25.9
2013-Nov-12 08:00S 09°35' W 123°23'0 0.1 25.9
2013-Nov-12 07:00S 09°35' W 123°23'0 0.2 25.9
2013-Nov-12 05:00S 09°35' W 123°23'1 0.5 25.9
2013-Nov-12 02:00S 09°34' W 123°21'0 0.3 26.2
2013-Nov-12 01:00S 09°34' W 123°21'0 0.0 26.0
2013-Nov-12 00:00S 09°34' W 123°21'1 0.6 26.0
2013-Nov-11 22:00S 09°34' W 123°20'2 0.3 26.2
2013-Nov-11 16:00S 09°34' W 123°18'0 0.3 25.9
2013-Nov-11 15:00S 09°33' W 123°18'2 0.3 25.9
2013-Nov-11 10:00S 09°33' W 123°17'1 0.8 26.1
2013-Nov-11 09:00S 09°33' W 123°17'0 0.0 25.9
2013-Nov-11 08:00S 09°33' W 123°17'1 0.4 25.9
2013-Nov-11 06:00S 09°32' W 123°17'0 0.0 26.1
2013-Nov-11 05:00S 09°32' W 123°17'1 0.6 25.9
2013-Nov-11 03:00S 09°31' W 123°16'0 0.0 25.9
2013-Nov-11 02:00S 09°31' W 123°16'1 0.3 26.1
2013-Nov-11 00:00S 09°31' W 123°16'1 0.5 25.9
2013-Nov-10 22:00S 09°31' W 123°15'0 0.0 26.1
2013-Nov-10 20:00S 09°31' W 123°15'3 0.8 25.9
2013-Nov-10 16:00S 09°29' W 123°12'0 0.0 25.8
2013-Nov-10 13:00S 09°29' W 123°12'1 0.4 25.8
2013-Nov-10 10:00S 09°29' W 123°11'0 0.0 26.0
2013-Nov-10 09:00S 09°29' W 123°11'2 0.2 25.8
2013-Nov-10 02:00S 09°28' W 123°10'2 0.3 26.0
2013-Nov-09 20:00S 09°27' W 123°08'1 0.3 25.8
2013-Nov-09 18:00S 09°27' W 123°08'3 0.4 26.0
2013-Nov-09 10:00S 09°26' W 123°05'0 0.0 26.0
2013-Nov-09 09:00S 09°26' W 123°05'0 0.0 25.8
2013-Nov-09 06:00S 09°26' W 123°05'1 0.3 26.0
2013-Nov-09 01:00S 09°25' W 123°03'1 0.3 25.9
2013-Nov-08 23:00S 09°25' W 123°03'0 0.4 25.9
2013-Nov-08 22:00S 09°25' W 123°02'3 0.7 26.1
2013-Nov-08 18:00S 09°24' W 122°60'0 0.0 26.0
2013-Nov-08 17:00S 09°24' W 122°60'1 1.3 25.8
2013-Nov-08 16:00S 09°23' W 122°59'0 0.1 25.8
2013-Nov-08 15:00S 09°23' W 122°59'0 0.0 25.9
2013-Nov-08 14:00S 09°23' W 122°59'2 0.4 26.0
2013-Nov-08 10:00S 09°23' W 122°57'2 0.3 26.0
2013-Nov-08 05:00S 09°23' W 122°55'1 0.6 25.8
2013-Nov-08 03:00S 09°23' W 122°54'1 0.3 25.9
2013-Nov-07 23:00S 09°23' W 122°53'4 0.7 26.0
2013-Nov-07 18:00S 09°24' W 122°49'0 0.0 26.0
2013-Nov-07 17:00S 09°24' W 122°49'0 0.0 25.8
2013-Nov-07 16:00S 09°24' W 122°49'2 0.2 25.8
2013-Nov-07 06:00S 09°26' W 122°49'2 1.0 26.0
2013-Nov-07 04:00S 09°25' W 122°47'0 0.1 25.8
2013-Nov-07 03:00S 09°25' W 122°47'1 0.3 25.8
2013-Nov-07 00:00S 09°24' W 122°47'0 0.0 25.9
2013-Nov-06 23:00S 09°24' W 122°47'1 0.6 25.9
2013-Nov-06 22:00S 09°24' W 122°46'2 0.3 26.1
2013-Nov-06 16:00S 09°23' W 122°45'0 0.0 25.8
2013-Nov-06 15:00S 09°23' W 122°45'1 0.9 25.8
2013-Nov-06 14:00S 09°23' W 122°44'1 0.4 25.9
2013-Nov-06 11:00S 09°23' W 122°43'0 0.0 25.8
2013-Nov-06 10:00S 09°23' W 122°43'1 0.3 25.9
2013-Nov-06 08:00S 09°23' W 122°42'2 0.8 25.7
2013-Nov-06 06:00S 09°22' W 122°40'4 0.5 25.9
2013-Nov-05 22:00S 09°22' W 122°37'0 0.0 26.1
2013-Nov-05 21:00S 09°22' W 122°37'0 0.0 25.9
2013-Nov-05 20:00S 09°22' W 122°37'3 1.0 25.9
2013-Nov-05 17:00S 09°21' W 122°34'0 0.0 25.8
2013-Nov-05 15:00S 09°21' W 122°34'4 0.4 25.8
2013-Nov-05 06:00S 09°19' W 122°30'1 1.4 26.0
2013-Nov-05 05:00S 09°20' W 122°29'0 0.0 25.8
2013-Nov-05 03:00S 09°20' W 122°29'2 0.6 25.9
2013-Nov-05 00:00S 09°20' W 122°27'1 0.4 26.0
2013-Nov-04 22:00S 09°20' W 122°26'0 0.2 26.1
2013-Nov-04 21:00S 09°20' W 122°26'0 0.0 26.0
2013-Nov-04 20:00S 09°20' W 122°26'2 2.3 26.0
2013-Nov-04 19:00S 09°20' W 122°24'1 0.1 26.0
2013-Nov-04 11:00S 09°20' W 122°23'0 0.0 25.9
2013-Nov-04 10:00S 09°20' W 122°23'2 0.4 26.0
2013-Nov-04 05:00S 09°19' W 122°21'0 0.0 26.0
2013-Nov-04 04:00S 09°19' W 122°21'1 0.8 26.0
2013-Nov-04 03:00S 09°19' W 122°20'1 0.6 26.0
2013-Nov-04 02:00S 09°19' W 122°20'0 0.2 26.2
2013-Nov-04 00:00S 09°19' W 122°19'1 0.3 26.1
2013-Nov-03 22:00S 09°19' W 122°19'1 0.6 26.3
2013-Nov-03 20:00S 09°19' W 122°18'1 0.3 26.1
2013-Nov-03 18:00S 09°19' W 122°18'0 0.1 26.1
2013-Nov-03 15:00S 09°19' W 122°18'0 0.1 25.9
2013-Nov-03 13:00S 09°19' W 122°18'2 1.0 25.9
2013-Nov-03 11:00S 09°18' W 122°16'0 0.0 25.9
2013-Nov-03 10:00S 09°18' W 122°16'0 0.0 26.0
2013-Nov-03 09:00S 09°18' W 122°16'0 0.2 25.9
2013-Nov-03 06:00S 09°17' W 122°15'0 0.0 26.0
2013-Nov-03 05:00S 09°17' W 122°15'1 0.3 26.0
2013-Nov-03 03:00S 09°17' W 122°15'0 0.4 26.0
2013-Nov-03 02:00S 09°17' W 122°15'1 0.6 26.1
2013-Nov-03 01:00S 09°16' W 122°15'0 0.0 26.0
2013-Nov-03 00:00S 09°16' W 122°15'2 0.4 26.1
2013-Nov-02 18:00S 09°15' W 122°12'   26.0
Track history (hours):
 
Tides and Currents Weather Stations Pressure Air Temp Water Temp Dewpoint Dewpoint Depression Visibility Wind Speed Wind Dir Waves Ship Positions

Drifting buoy 32685

Last reported at 2013-Nov-12 18:00 UTC. Time now 2014-Jul-28 12:22 UTC.
Position S 09°36' W 123°25'.
Warning: this ship's position is months out of date.

Water temperature 26.1 ° C

Date/timePositionNaut miles runAvg speedWind from/ knotsBaromVisibWave heightAir tempDewpointWater temp
2013-Nov-12 18:00S 09°36' W 123°25'1 0.7 26.1
2013-Nov-12 16:00S 09°35' W 123°24'2 0.5 25.9
2013-Nov-12 13:00S 09°36' W 123°23'2 0.6 25.9
2013-Nov-12 10:00S 09°35' W 123°24'1 0.8 26.1
2013-Nov-12 09:00S 09°35' W 123°23'0 0.0 25.9
2013-Nov-12 08:00S 09°35' W 123°23'0 0.1 25.9
2013-Nov-12 07:00S 09°35' W 123°23'0 0.2 25.9
2013-Nov-12 05:00S 09°35' W 123°23'1 0.5 25.9
2013-Nov-12 02:00S 09°34' W 123°21'0 0.3 26.2
2013-Nov-12 01:00S 09°34' W 123°21'0 0.0 26.0
2013-Nov-12 00:00S 09°34' W 123°21'1 0.6 26.0
2013-Nov-11 22:00S 09°34' W 123°20'2 0.3 26.2
2013-Nov-11 16:00S 09°34' W 123°18'0 0.3 25.9
2013-Nov-11 15:00S 09°33' W 123°18'2 0.3 25.9
2013-Nov-11 10:00S 09°33' W 123°17'1 0.8 26.1
2013-Nov-11 09:00S 09°33' W 123°17'0 0.0 25.9
2013-Nov-11 08:00S 09°33' W 123°17'1 0.4 25.9
2013-Nov-11 06:00S 09°32' W 123°17'0 0.0 26.1
2013-Nov-11 05:00S 09°32' W 123°17'1 0.6 25.9
2013-Nov-11 03:00S 09°31' W 123°16'0 0.0 25.9
2013-Nov-11 02:00S 09°31' W 123°16'1 0.3 26.1
2013-Nov-11 00:00S 09°31' W 123°16'1 0.5 25.9
2013-Nov-10 22:00S 09°31' W 123°15'0 0.0 26.1
2013-Nov-10 20:00S 09°31' W 123°15'3 0.8 25.9
2013-Nov-10 16:00S 09°29' W 123°12'0 0.0 25.8
2013-Nov-10 13:00S 09°29' W 123°12'1 0.4 25.8
2013-Nov-10 10:00S 09°29' W 123°11'0 0.0 26.0
2013-Nov-10 09:00S 09°29' W 123°11'2 0.2 25.8
2013-Nov-10 02:00S 09°28' W 123°10'2 0.3 26.0
2013-Nov-09 20:00S 09°27' W 123°08'1 0.3 25.8
2013-Nov-09 18:00S 09°27' W 123°08'3 0.4 26.0
2013-Nov-09 10:00S 09°26' W 123°05'0 0.0 26.0
2013-Nov-09 09:00S 09°26' W 123°05'0 0.0 25.8
2013-Nov-09 06:00S 09°26' W 123°05'1 0.3 26.0
2013-Nov-09 01:00S 09°25' W 123°03'1 0.3 25.9
2013-Nov-08 23:00S 09°25' W 123°03'0 0.4 25.9
2013-Nov-08 22:00S 09°25' W 123°02'3 0.7 26.1
2013-Nov-08 18:00S 09°24' W 122°60'0 0.0 26.0
2013-Nov-08 17:00S 09°24' W 122°60'1 1.3 25.8
2013-Nov-08 16:00S 09°23' W 122°59'0 0.1 25.8
2013-Nov-08 15:00S 09°23' W 122°59'0 0.0 25.9
2013-Nov-08 14:00S 09°23' W 122°59'2 0.4 26.0
2013-Nov-08 10:00S 09°23' W 122°57'2 0.3 26.0
2013-Nov-08 05:00S 09°23' W 122°55'1 0.6 25.8
2013-Nov-08 03:00S 09°23' W 122°54'1 0.3 25.9
2013-Nov-07 23:00S 09°23' W 122°53'4 0.7 26.0
2013-Nov-07 18:00S 09°24' W 122°49'0 0.0 26.0
2013-Nov-07 17:00S 09°24' W 122°49'0 0.0 25.8
2013-Nov-07 16:00S 09°24' W 122°49'2 0.2 25.8
2013-Nov-07 06:00S 09°26' W 122°49'2 1.0 26.0
2013-Nov-07 04:00S 09°25' W 122°47'0 0.1 25.8
2013-Nov-07 03:00S 09°25' W 122°47'1 0.3 25.8
2013-Nov-07 00:00S 09°24' W 122°47'0 0.0 25.9
2013-Nov-06 23:00S 09°24' W 122°47'1 0.6 25.9
2013-Nov-06 22:00S 09°24' W 122°46'2 0.3 26.1
2013-Nov-06 16:00S 09°23' W 122°45'0 0.0 25.8
2013-Nov-06 15:00S 09°23' W 122°45'1 0.9 25.8
2013-Nov-06 14:00S 09°23' W 122°44'1 0.4 25.9
2013-Nov-06 11:00S 09°23' W 122°43'0 0.0 25.8
2013-Nov-06 10:00S 09°23' W 122°43'1 0.3 25.9
2013-Nov-06 08:00S 09°23' W 122°42'2 0.8 25.7
2013-Nov-06 06:00S 09°22' W 122°40'4 0.5 25.9
2013-Nov-05 22:00S 09°22' W 122°37'0 0.0 26.1
2013-Nov-05 21:00S 09°22' W 122°37'0 0.0 25.9
2013-Nov-05 20:00S 09°22' W 122°37'3 1.0 25.9
2013-Nov-05 17:00S 09°21' W 122°34'0 0.0 25.8
2013-Nov-05 15:00S 09°21' W 122°34'4 0.4 25.8
2013-Nov-05 06:00S 09°19' W 122°30'1 1.4 26.0
2013-Nov-05 05:00S 09°20' W 122°29'0 0.0 25.8
2013-Nov-05 03:00S 09°20' W 122°29'2 0.6 25.9
2013-Nov-05 00:00S 09°20' W 122°27'1 0.4 26.0
2013-Nov-04 22:00S 09°20' W 122°26'0 0.2 26.1
2013-Nov-04 21:00S 09°20' W 122°26'0 0.0 26.0
2013-Nov-04 20:00S 09°20' W 122°26'2 2.3 26.0
2013-Nov-04 19:00S 09°20' W 122°24'1 0.1 26.0
2013-Nov-04 11:00S 09°20' W 122°23'0 0.0 25.9
2013-Nov-04 10:00S 09°20' W 122°23'2 0.4 26.0
2013-Nov-04 05:00S 09°19' W 122°21'0 0.0 26.0
2013-Nov-04 04:00S 09°19' W 122°21'1 0.8 26.0
2013-Nov-04 03:00S 09°19' W 122°20'1 0.6 26.0
2013-Nov-04 02:00S 09°19' W 122°20'0 0.2 26.2
2013-Nov-04 00:00S 09°19' W 122°19'1 0.3 26.1
2013-Nov-03 22:00S 09°19' W 122°19'1 0.6 26.3
2013-Nov-03 20:00S 09°19' W 122°18'1 0.3 26.1
2013-Nov-03 18:00S 09°19' W 122°18'0 0.1 26.1
2013-Nov-03 15:00S 09°19' W 122°18'0 0.1 25.9
2013-Nov-03 13:00S 09°19' W 122°18'2 1.0 25.9
2013-Nov-03 11:00S 09°18' W 122°16'0 0.0 25.9
2013-Nov-03 10:00S 09°18' W 122°16'0 0.0 26.0
2013-Nov-03 09:00S 09°18' W 122°16'0 0.2 25.9
2013-Nov-03 06:00S 09°17' W 122°15'0 0.0 26.0
2013-Nov-03 05:00S 09°17' W 122°15'1 0.3 26.0
2013-Nov-03 03:00S 09°17' W 122°15'0 0.4 26.0
2013-Nov-03 02:00S 09°17' W 122°15'1 0.6 26.1
2013-Nov-03 01:00S 09°16' W 122°15'0 0.0 26.0
2013-Nov-03 00:00S 09°16' W 122°15'2 0.4 26.1
2013-Nov-02 18:00S 09°15' W 122°12'   26.0

Dump ship's entire track history